createdAt,value
2023-04-09T00:03:41.371Z,14.52
2023-04-09T00:11:15.485Z,16.92
2023-04-09T00:18:51.135Z,16.47
2023-04-09T00:26:25.391Z,14.95
2023-04-09T00:34:00.715Z,15.70
2023-04-09T00:41:34.609Z,16.55
2023-04-09T00:49:09.928Z,15.00
2023-04-09T00:56:44.207Z,15.75
2023-04-09T01:04:20.311Z,14.30
2023-04-09T01:12:10.530Z,15.07
2023-04-09T01:19:55.759Z,15.38
2023-04-09T01:27:38.824Z,15.65
2023-04-09T01:35:15.508Z,15.13
2023-04-09T01:42:51.287Z,14.98
2023-04-09T01:50:26.962Z,15.15
2023-04-09T01:58:00.941Z,16.85
2023-04-09T02:05:40.276Z,16.50
2023-04-09T02:13:18.333Z,17.20
2023-04-09T02:20:54.944Z,15.07
2023-04-09T02:28:28.824Z,17.90
2023-04-09T02:36:04.175Z,16.70
2023-04-09T02:43:38.440Z,16.10
2023-04-09T02:51:13.766Z,15.68
2023-04-09T02:58:49.523Z,16.55
2023-04-09T03:06:24.949Z,15.93
2023-04-09T03:13:58.872Z,17.50
2023-04-09T03:21:34.190Z,16.33
2023-04-09T03:29:09.201Z,18.13
2023-04-09T03:36:44.429Z,17.50
2023-04-09T03:44:18.291Z,18.55
2023-04-09T03:51:53.878Z,19.37
2023-04-09T03:59:27.811Z,17.63
2023-04-09T04:07:04.393Z,19.10
2023-04-09T04:14:38.269Z,17.80
2023-04-09T04:22:13.625Z,17.73
2023-04-09T04:29:48.735Z,18.30
2023-04-09T04:37:24.087Z,20.27
2023-04-09T04:44:58.006Z,17.88
2023-04-09T04:52:33.624Z,19.35
2023-04-09T05:00:08.977Z,18.33
2023-04-09T05:07:44.256Z,18.80
2023-04-09T05:15:19.017Z,18.67
2023-04-09T05:22:54.303Z,19.52
2023-04-09T05:30:28.223Z,18.30
2023-04-09T05:38:03.552Z,17.75
2023-04-09T05:45:37.444Z,16.63
2023-04-09T05:53:13.098Z,11.47
2023-04-09T06:00:47.010Z,13.98
2023-04-09T06:08:22.304Z,13.05
2023-04-09T06:15:56.386Z,16.35
2023-04-09T06:23:31.761Z,14.75
2023-04-09T06:31:05.945Z,15.63
2023-04-09T06:38:41.544Z,14.00
2023-04-09T06:46:17.866Z,17.65
2023-04-09T06:53:53.450Z,18.40
2023-04-09T07:01:28.716Z,18.77
2023-04-09T07:09:03.987Z,16.98
2023-04-09T07:16:37.876Z,17.58
2023-04-09T07:24:13.393Z,18.67
2023-04-09T07:31:47.729Z,19.15
2023-04-09T07:39:23.773Z,19.23
2023-04-09T07:46:57.666Z,20.65
2023-04-09T07:54:33.538Z,21.47
2023-04-09T08:02:08.500Z,20.70
2023-04-09T08:09:43.820Z,22.45
2023-04-09T08:17:17.990Z,22.48
2023-04-09T08:24:54.598Z,21.90
2023-04-09T08:32:28.685Z,22.05
2023-04-09T08:40:04.172Z,20.53
2023-04-09T08:47:38.757Z,22.45
2023-04-09T08:55:14.124Z,21.63
2023-04-09T09:03:05.905Z,20.55
2023-04-09T09:18:40.523Z,21.03
2023-04-09T09:26:18.194Z,20.77
2023-04-09T09:33:52.992Z,20.33
2023-04-09T09:49:02.796Z,22.95
2023-04-09T09:56:40.112Z,22.63
2023-04-09T10:04:16.030Z,23.70
2023-04-09T10:11:51.512Z,23.50
2023-04-09T10:19:25.697Z,23.80
2023-04-09T10:27:10.865Z,24.17
2023-04-09T10:42:25.128Z,24.92
2023-04-09T10:49:59.441Z,27.10
2023-04-09T10:57:34.919Z,23.53
2023-04-09T11:05:33.768Z,21.27
2023-04-09T11:13:12.842Z,19.27
2023-04-09T11:20:47.452Z,21.88
2023-04-09T11:28:24.823Z,19.38
2023-04-09T11:35:58.763Z,22.98
2023-04-09T11:43:37.227Z,18.50
2023-04-09T11:51:11.624Z,18.42
2023-04-09T11:58:48.765Z,19.23
2023-04-09T12:06:24.917Z,18.30
2023-04-09T12:14:04.010Z,15.30
2023-04-09T12:21:48.031Z,15.05
2023-04-09T12:29:26.734Z,15.75
2023-04-09T12:37:00.874Z,14.00
2023-04-09T12:44:37.376Z,14.00
2023-04-09T12:52:11.282Z,11.75
2023-04-09T12:59:46.839Z,9.90
2023-04-09T13:07:21.233Z,9.07
2023-04-09T13:14:56.801Z,11.07
2023-04-09T13:22:30.904Z,11.23
2023-04-09T13:30:08.480Z,11.63
2023-04-09T13:37:43.940Z,11.27
2023-04-09T13:45:20.750Z,10.15
2023-04-09T13:52:54.805Z,11.20
2023-04-09T14:00:30.501Z,10.45
2023-04-09T14:08:04.534Z,9.35
2023-04-09T14:15:40.116Z,9.65
2023-04-09T14:23:14.065Z,10.18
2023-04-09T14:30:49.685Z,9.05
2023-04-09T14:38:24.193Z,7.82
2023-04-09T14:46:01.279Z,10.20
2023-04-09T14:53:35.082Z,13.73
2023-04-09T15:01:10.522Z,13.18
2023-04-09T15:08:46.286Z,12.38
2023-04-09T15:16:25.963Z,12.27
2023-04-09T15:24:00.486Z,25.95
2023-04-09T15:31:36.416Z,28.67
2023-04-09T15:39:10.515Z,16.95
2023-04-09T15:46:45.897Z,21.98
2023-04-09T15:54:19.922Z,19.63
2023-04-09T16:01:55.378Z,21.25
2023-04-09T16:09:29.548Z,17.13
2023-04-09T16:17:05.009Z,12.77
2023-04-09T16:24:39.089Z,16.83
2023-04-09T16:32:14.669Z,11.60
2023-04-09T16:39:48.926Z,10.57
2023-04-09T16:47:24.290Z,8.87
2023-04-09T16:54:58.384Z,10.38
2023-04-09T17:02:33.909Z,11.48
2023-04-09T17:10:10.029Z,14.40
2023-04-09T17:17:45.795Z,17.13
2023-04-09T17:25:20.517Z,17.67
2023-04-09T17:32:55.835Z,16.27
2023-04-09T17:40:29.817Z,17.40
2023-04-09T17:48:05.692Z,17.25
2023-04-09T17:55:39.780Z,17.23
2023-04-09T18:03:15.614Z,17.48
2023-04-09T18:11:08.906Z,16.20
2023-04-09T18:26:37.843Z,18.25
2023-04-09T18:34:13.226Z,18.70
2023-04-09T18:41:47.175Z,16.77
2023-04-09T18:49:22.560Z,18.50
2023-04-09T18:56:57.596Z,18.75
2023-04-09T19:12:10.616Z,18.52
2023-04-09T19:19:46.243Z,17.13
2023-04-09T19:27:20.202Z,15.30
2023-04-09T19:34:55.913Z,18.65
2023-04-09T19:42:29.831Z,18.15
2023-04-09T19:50:05.330Z,18.00
2023-04-09T19:57:40.907Z,16.42
2023-04-09T20:05:18.330Z,15.75
2023-04-09T20:12:52.797Z,16.33
2023-04-09T20:20:28.156Z,15.93
2023-04-09T20:28:03.514Z,16.27
2023-04-09T20:35:38.868Z,15.43
2023-04-09T20:43:12.823Z,17.45
2023-04-09T20:50:48.117Z,17.90
2023-04-09T20:58:22.390Z,18.35
2023-04-09T21:05:57.819Z,20.07
2023-04-09T21:13:40.363Z,17.67
2023-04-09T21:21:27.635Z,17.15
2023-04-09T21:29:01.644Z,17.35
2023-04-09T21:36:39.449Z,18.13
2023-04-09T21:44:14.765Z,19.10
2023-04-09T21:51:50.067Z,17.63
2023-04-09T21:59:24.258Z,17.17
2023-04-09T22:06:59.552Z,17.67
2023-04-09T22:14:33.523Z,17.05
2023-04-09T22:22:12.191Z,16.43
2023-04-09T22:29:46.239Z,16.23
2023-04-09T22:37:21.862Z,17.57
2023-04-09T22:44:55.785Z,17.38
2023-04-09T22:52:31.163Z,17.15
2023-04-09T23:00:05.804Z,16.45
2023-04-09T23:07:43.017Z,16.23
2023-04-09T23:15:17.060Z,14.90
2023-04-09T23:22:52.351Z,16.13
2023-04-09T23:30:26.386Z,15.55
2023-04-09T23:38:01.901Z,14.93
2023-04-09T23:45:36.489Z,16.80
2023-04-09T23:53:12.133Z,13.65
